sensor_id;sensor_type;location;lat;lon;timestamp;temperature;humidity
13198;DHT22;6664;52.514;13.440;2022-12-26T00:02:35;9.50;99.90
13198;DHT22;6664;52.514;13.440;2022-12-26T00:05:23;9.50;99.90
13198;DHT22;6664;52.514;13.440;2022-12-26T00:08:09;9.50;99.90
13198;DHT22;6664;52.514;13.440;2022-12-26T00:10:55;9.40;99.90
13198;DHT22;6664;52.514;13.440;2022-12-26T00:13:40;9.50;99.90
13198;DHT22;6664;52.514;13.440;2022-12-26T00:16:27;9.50;99.90
13198;DHT22;6664;52.514;13.440;2022-12-26T00:19:13;9.50;99.90
13198;DHT22;6664;52.514;13.440;2022-12-26T00:22:03;9.50;99.90
13198;DHT22;6664;52.514;13.440;2022-12-26T00:24:49;9.60;99.90
13198;DHT22;6664;52.514;13.440;2022-12-26T00:27:39;9.60;99.90
13198;DHT22;6664;52.514;13.440;2022-12-26T00:30:27;9.60;99.90
13198;DHT22;6664;52.514;13.440;2022-12-26T00:33:13;9.40;99.90
13198;DHT22;6664;52.514;13.440;2022-12-26T00:36:04;9.40;99.90
13198;DHT22;6664;52.514;13.440;2022-12-26T00:38:52;9.50;99.90
13198;DHT22;6664;52.514;13.440;2022-12-26T00:41:38;9.50;99.90
13198;DHT22;6664;52.514;13.440;2022-12-26T00:44:26;9.50;99.90
13198;DHT22;6664;52.514;13.440;2022-12-26T00:47:12;9.60;99.90
13198;DHT22;6664;52.514;13.440;2022-12-26T00:49:57;9.50;99.90
13198;DHT22;6664;52.514;13.440;2022-12-26T00:52:59;9.60;99.90
13198;DHT22;6664;52.514;13.440;2022-12-26T00:55:44;9.50;99.90
13198;DHT22;6664;52.514;13.440;2022-12-26T00:58:30;9.50;99.90
13198;DHT22;6664;52.514;13.440;2022-12-26T01:01:21;9.50;99.90
13198;DHT22;6664;52.514;13.440;2022-12-26T01:04:07;9.50;99.90
13198;DHT22;6664;52.514;13.440;2022-12-26T01:06:52;9.50;99.90
13198;DHT22;6664;52.514;13.440;2022-12-26T01:09:38;9.60;99.90
13198;DHT22;6664;52.514;13.440;2022-12-26T01:12:23;9.50;99.90
13198;DHT22;6664;52.514;13.440;2022-12-26T01:15:09;9.60;99.90
13198;DHT22;6664;52.514;13.440;2022-12-26T01:17:55;9.60;99.90
13198;DHT22;6664;52.514;13.440;2022-12-26T01:20:42;9.60;99.90
13198;DHT22;6664;52.514;13.440;2022-12-26T01:23:27;9.60;99.90
13198;DHT22;6664;52.514;13.440;2022-12-26T01:26:13;9.60;99.90
13198;DHT22;6664;52.514;13.440;2022-12-26T01:29:08;9.60;99.70
13198;DHT22;6664;52.514;13.440;2022-12-26T01:31:53;9.60;99.70
13198;DHT22;6664;52.514;13.440;2022-12-26T01:34:38;9.60;99.60
13198;DHT22;6664;52.514;13.440;2022-12-26T01:37:24;9.60;99.50
13198;DHT22;6664;52.514;13.440;2022-12-26T01:40:11;9.70;99.10
13198;DHT22;6664;52.514;13.440;2022-12-26T01:42:56;9.70;98.90
13198;DHT22;6664;52.514;13.440;2022-12-26T01:45:45;9.70;98.60
13198;DHT22;6664;52.514;13.440;2022-12-26T01:48:35;9.70;98.30
13198;DHT22;6664;52.514;13.440;2022-12-26T01:51:23;9.70;98.10
13198;DHT22;6664;52.514;13.440;2022-12-26T01:54:13;9.60;97.90
13198;DHT22;6664;52.514;13.440;2022-12-26T01:57:33;9.50;97.80
13198;DHT22;6664;52.514;13.440;2022-12-26T02:00:20;9.30;97.80
13198;DHT22;6664;52.514;13.440;2022-12-26T02:03:08;9.20;98.20
13198;DHT22;6664;52.514;13.440;2022-12-26T02:06:13;9.10;98.50
13198;DHT22;6664;52.514;13.440;2022-12-26T02:09:02;9.10;99.00
13198;DHT22;6664;52.514;13.440;2022-12-26T02:12:01;9.20;99.50
13198;DHT22;6664;52.514;13.440;2022-12-26T02:15:12;9.10;99.00
13198;DHT22;6664;52.514;13.440;2022-12-26T02:17:58;9.10;99.40
13198;DHT22;6664;52.514;13.440;2022-12-26T02:27:04;9.60;99.10
13198;DHT22;6664;52.514;13.440;2022-12-26T02:36:20;9.90;96.00
13198;DHT22;6664;52.514;13.440;2022-12-26T02:39:09;10.00;95.20
13198;DHT22;6664;52.514;13.440;2022-12-26T02:50:01;10.20;93.90
13198;DHT22;6664;52.514;13.440;2022-12-26T02:56:34;10.30;93.30
13198;DHT22;6664;52.514;13.440;2022-12-26T03:00:04;10.30;93.30
13198;DHT22;6664;52.514;13.440;2022-12-26T03:03:19;10.30;92.80
13198;DHT22;6664;52.514;13.440;2022-12-26T03:06:27;10.30;92.70
13198;DHT22;6664;52.514;13.440;2022-12-26T03:09:33;10.30;92.50
13198;DHT22;6664;52.514;13.440;2022-12-26T03:12:42;10.20;92.40
13198;DHT22;6664;52.514;13.440;2022-12-26T03:15:53;10.20;92.50
13198;DHT22;6664;52.514;13.440;2022-12-26T03:19:03;10.20;92.40
13198;DHT22;6664;52.514;13.440;2022-12-26T03:21:52;10.20;92.40
13198;DHT22;6664;52.514;13.440;2022-12-26T03:24:39;10.20;92.20
13198;DHT22;6664;52.514;13.440;2022-12-26T03:27:45;10.30;92.00
13198;DHT22;6664;52.514;13.440;2022-12-26T03:30:31;10.30;91.70
13198;DHT22;6664;52.514;13.440;2022-12-26T03:33:44;10.40;91.70
13198;DHT22;6664;52.514;13.440;2022-12-26T03:43:48;10.50;90.80
13198;DHT22;6664;52.514;13.440;2022-12-26T03:53:47;10.60;90.60
13198;DHT22;6664;52.514;13.440;2022-12-26T03:56:59;10.60;90.80
13198;DHT22;6664;52.514;13.440;2022-12-26T04:00:12;10.50;90.40
13198;DHT22;6664;52.514;13.440;2022-12-26T04:03:18;10.60;90.30
13198;DHT22;6664;52.514;13.440;2022-12-26T04:06:26;10.60;90.20
13198;DHT22;6664;52.514;13.440;2022-12-26T04:09:50;10.60;90.10
13198;DHT22;6664;52.514;13.440;2022-12-26T04:12:57;10.60;90.00
13198;DHT22;6664;52.514;13.440;2022-12-26T04:16:09;10.60;89.90
13198;DHT22;6664;52.514;13.440;2022-12-26T04:22:29;10.60;89.50
13198;DHT22;6664;52.514;13.440;2022-12-26T04:25:45;10.60;89.40
13198;DHT22;6664;52.514;13.440;2022-12-26T04:28:49;10.60;89.60
13198;DHT22;6664;52.514;13.440;2022-12-26T04:32:05;10.50;90.00
13198;DHT22;6664;52.514;13.440;2022-12-26T04:35:19;10.30;90.20
13198;DHT22;6664;52.514;13.440;2022-12-26T04:38:26;10.30;90.40
13198;DHT22;6664;52.514;13.440;2022-12-26T04:41:32;10.30;90.50
13198;DHT22;6664;52.514;13.440;2022-12-26T04:44:38;10.30;90.40
13198;DHT22;6664;52.514;13.440;2022-12-26T04:47:24;10.30;90.50
13198;DHT22;6664;52.514;13.440;2022-12-26T04:50:10;10.40;90.30
13198;DHT22;6664;52.514;13.440;2022-12-26T04:52:58;10.40;90.30
13198;DHT22;6664;52.514;13.440;2022-12-26T04:55:45;10.50;90.20
13198;DHT22;6664;52.514;13.440;2022-12-26T04:58:30;10.60;89.90
13198;DHT22;6664;52.514;13.440;2022-12-26T05:01:16;10.70;89.40
13198;DHT22;6664;52.514;13.440;2022-12-26T05:04:20;10.70;88.90
13198;DHT22;6664;52.514;13.440;2022-12-26T05:07:29;10.70;88.60
13198;DHT22;6664;52.514;13.440;2022-12-26T05:10:53;10.70;88.40
13198;DHT22;6664;52.514;13.440;2022-12-26T05:13:40;10.70;88.30
13198;DHT22;6664;52.514;13.440;2022-12-26T05:16:26;10.70;88.30
13198;DHT22;6664;52.514;13.440;2022-12-26T05:19:30;10.70;88.20
13198;DHT22;6664;52.514;13.440;2022-12-26T05:22:37;10.80;88.10
13198;DHT22;6664;52.514;13.440;2022-12-26T05:25:43;10.80;88.00
13198;DHT22;6664;52.514;13.440;2022-12-26T05:28:55;10.80;88.00
13198;DHT22;6664;52.514;13.440;2022-12-26T05:31:42;10.80;87.90
13198;DHT22;6664;52.514;13.440;2022-12-26T05:34:28;10.80;87.70
13198;DHT22;6664;52.514;13.440;2022-12-26T05:37:16;10.80;87.50
13198;DHT22;6664;52.514;13.440;2022-12-26T05:40:04;10.80;87.40
13198;DHT22;6664;52.514;13.440;2022-12-26T05:42:50;10.70;87.70
13198;DHT22;6664;52.514;13.440;2022-12-26T05:45:35;10.80;87.80
13198;DHT22;6664;52.514;13.440;2022-12-26T05:48:22;10.80;87.50
13198;DHT22;6664;52.514;13.440;2022-12-26T05:51:08;10.80;87.40
13198;DHT22;6664;52.514;13.440;2022-12-26T05:53:55;10.90;87.30
13198;DHT22;6664;52.514;13.440;2022-12-26T05:56:41;10.90;87.30
13198;DHT22;6664;52.514;13.440;2022-12-26T05:59:33;10.90;87.20
13198;DHT22;6664;52.514;13.440;2022-12-26T06:02:21;10.90;87.20
13198;DHT22;6664;52.514;13.440;2022-12-26T06:05:07;10.90;87.10
13198;DHT22;6664;52.514;13.440;2022-12-26T06:07:52;10.90;86.80
13198;DHT22;6664;52.514;13.440;2022-12-26T06:10:38;10.90;86.70
13198;DHT22;6664;52.514;13.440;2022-12-26T06:13:23;10.90;86.60
13198;DHT22;6664;52.514;13.440;2022-12-26T06:16:11;10.90;86.50
13198;DHT22;6664;52.514;13.440;2022-12-26T06:18:59;10.90;86.50
13198;DHT22;6664;52.514;13.440;2022-12-26T06:21:45;10.80;86.30
13198;DHT22;6664;52.514;13.440;2022-12-26T06:24:30;10.90;86.50
13198;DHT22;6664;52.514;13.440;2022-12-26T06:27:16;10.90;86.40
13198;DHT22;6664;52.514;13.440;2022-12-26T06:30:01;10.80;86.30
13198;DHT22;6664;52.514;13.440;2022-12-26T06:32:50;10.80;86.30
13198;DHT22;6664;52.514;13.440;2022-12-26T06:35:35;10.80;86.30
13198;DHT22;6664;52.514;13.440;2022-12-26T06:38:25;10.80;86.30
13198;DHT22;6664;52.514;13.440;2022-12-26T06:41:13;10.90;86.30
13198;DHT22;6664;52.514;13.440;2022-12-26T06:43:58;10.90;86.30
13198;DHT22;6664;52.514;13.440;2022-12-26T06:46:44;10.80;86.10
13198;DHT22;6664;52.514;13.440;2022-12-26T06:49:30;10.90;86.10
13198;DHT22;6664;52.514;13.440;2022-12-26T06:52:17;10.90;85.90
13198;DHT22;6664;52.514;13.440;2022-12-26T06:55:03;10.90;85.90
13198;DHT22;6664;52.514;13.440;2022-12-26T06:57:51;10.80;85.80
13198;DHT22;6664;52.514;13.440;2022-12-26T07:00:37;10.90;85.80
13198;DHT22;6664;52.514;13.440;2022-12-26T07:03:22;10.90;85.50
13198;DHT22;6664;52.514;13.440;2022-12-26T07:06:33;10.90;85.50
13198;DHT22;6664;52.514;13.440;2022-12-26T07:09:19;10.90;86.10
13198;DHT22;6664;52.514;13.440;2022-12-26T07:12:08;10.90;85.50
13198;DHT22;6664;52.514;13.440;2022-12-26T07:14:54;10.90;85.50
13198;DHT22;6664;52.514;13.440;2022-12-26T07:17:45;10.90;85.50
13198;DHT22;6664;52.514;13.440;2022-12-26T07:20:31;10.90;85.50
13198;DHT22;6664;52.514;13.440;2022-12-26T07:23:16;10.90;85.70
13198;DHT22;6664;52.514;13.440;2022-12-26T07:26:03;10.90;85.80
13198;DHT22;6664;52.514;13.440;2022-12-26T07:28:52;10.90;85.70
13198;DHT22;6664;52.514;13.440;2022-12-26T07:31:41;10.90;85.90
13198;DHT22;6664;52.514;13.440;2022-12-26T07:34:27;10.90;85.80
13198;DHT22;6664;52.514;13.440;2022-12-26T07:37:15;10.90;85.70
13198;DHT22;6664;52.514;13.440;2022-12-26T07:40:01;10.90;85.70
13198;DHT22;6664;52.514;13.440;2022-12-26T07:42:47;10.90;85.60
13198;DHT22;6664;52.514;13.440;2022-12-26T07:45:32;10.90;85.60
13198;DHT22;6664;52.514;13.440;2022-12-26T07:48:20;10.80;85.70
13198;DHT22;6664;52.514;13.440;2022-12-26T07:51:06;10.60;86.30
13198;DHT22;6664;52.514;13.440;2022-12-26T07:53:51;10.60;86.70
13198;DHT22;6664;52.514;13.440;2022-12-26T07:56:37;10.60;86.70
13198;DHT22;6664;52.514;13.440;2022-12-26T07:59:23;10.70;86.70
13198;DHT22;6664;52.514;13.440;2022-12-26T08:02:09;10.70;86.80
13198;DHT22;6664;52.514;13.440;2022-12-26T08:04:56;10.70;86.60
13198;DHT22;6664;52.514;13.440;2022-12-26T08:07:41;10.80;86.50
13198;DHT22;6664;52.514;13.440;2022-12-26T08:10:27;10.90;85.90
13198;DHT22;6664;52.514;13.440;2022-12-26T08:13:15;10.90;85.80
13198;DHT22;6664;52.514;13.440;2022-12-26T08:16:07;11.00;85.70
13198;DHT22;6664;52.514;13.440;2022-12-26T08:18:59;11.00;85.40
13198;DHT22;6664;52.514;13.440;2022-12-26T08:21:46;11.00;85.20
13198;DHT22;6664;52.514;13.440;2022-12-26T08:24:32;11.00;85.00
13198;DHT22;6664;52.514;13.440;2022-12-26T08:27:18;11.00;84.90
13198;DHT22;6664;52.514;13.440;2022-12-26T08:30:04;11.10;84.70
13198;DHT22;6664;52.514;13.440;2022-12-26T08:32:50;11.10;84.70
13198;DHT22;6664;52.514;13.440;2022-12-26T08:35:37;11.20;84.60
13198;DHT22;6664;52.514;13.440;2022-12-26T08:38:23;11.20;84.40
13198;DHT22;6664;52.514;13.440;2022-12-26T08:41:16;11.20;84.10
13198;DHT22;6664;52.514;13.440;2022-12-26T08:44:04;11.20;84.00
13198;DHT22;6664;52.514;13.440;2022-12-26T08:47:10;11.20;83.80
13198;DHT22;6664;52.514;13.440;2022-12-26T08:49:57;11.20;83.80
13198;DHT22;6664;52.514;13.440;2022-12-26T08:52:43;11.10;83.90
13198;DHT22;6664;52.514;13.440;2022-12-26T08:55:29;11.10;84.40
13198;DHT22;6664;52.514;13.440;2022-12-26T08:58:14;11.00;84.60
13198;DHT22;6664;52.514;13.440;2022-12-26T09:01:13;11.00;85.00
13198;DHT22;6664;52.514;13.440;2022-12-26T09:04:02;11.00;85.20
13198;DHT22;6664;52.514;13.440;2022-12-26T09:06:48;11.00;85.30
13198;DHT22;6664;52.514;13.440;2022-12-26T09:09:35;11.00;86.10
13198;DHT22;6664;52.514;13.440;2022-12-26T09:12:21;11.00;85.40
13198;DHT22;6664;52.514;13.440;2022-12-26T09:15:06;11.10;85.40
13198;DHT22;6664;52.514;13.440;2022-12-26T09:17:54;11.10;85.40
13198;DHT22;6664;52.514;13.440;2022-12-26T09:20:42;11.10;85.30
13198;DHT22;6664;52.514;13.440;2022-12-26T09:23:31;11.10;85.30
13198;DHT22;6664;52.514;13.440;2022-12-26T09:26:19;11.20;85.10
13198;DHT22;6664;52.514;13.440;2022-12-26T09:29:05;11.30;85.00
13198;DHT22;6664;52.514;13.440;2022-12-26T09:31:50;11.30;84.50
13198;DHT22;6664;52.514;13.440;2022-12-26T09:34:41;11.40;84.00
13198;DHT22;6664;52.514;13.440;2022-12-26T09:37:27;11.30;83.80
13198;DHT22;6664;52.514;13.440;2022-12-26T09:40:21;11.40;84.00
13198;DHT22;6664;52.514;13.440;2022-12-26T09:49:49;11.40;83.60
13198;DHT22;6664;52.514;13.440;2022-12-26T09:52:53;11.30;83.50
13198;DHT22;6664;52.514;13.440;2022-12-26T09:55:53;11.30;83.30
13198;DHT22;6664;52.514;13.440;2022-12-26T09:58:44;11.40;83.20
13198;DHT22;6664;52.514;13.440;2022-12-26T10:01:34;11.50;82.80
13198;DHT22;6664;52.514;13.440;2022-12-26T10:04:28;11.60;81.80
13198;DHT22;6664;52.514;13.440;2022-12-26T10:07:37;11.60;81.40
13198;DHT22;6664;52.514;13.440;2022-12-26T10:10:46;11.70;80.90
13198;DHT22;6664;52.514;13.440;2022-12-26T10:13:55;11.70;80.30
13198;DHT22;6664;52.514;13.440;2022-12-26T10:16:52;11.70;79.70
13198;DHT22;6664;52.514;13.440;2022-12-26T10:26:03;11.80;78.30
13198;DHT22;6664;52.514;13.440;2022-12-26T10:29:17;11.80;78.40
13198;DHT22;6664;52.514;13.440;2022-12-26T10:32:05;11.80;78.50
13198;DHT22;6664;52.514;13.440;2022-12-26T10:34:51;11.70;79.10
13198;DHT22;6664;52.514;13.440;2022-12-26T10:37:41;11.60;78.80
13198;DHT22;6664;52.514;13.440;2022-12-26T10:40:41;11.60;79.10
13198;DHT22;6664;52.514;13.440;2022-12-26T10:43:33;11.60;79.10
13198;DHT22;6664;52.514;13.440;2022-12-26T10:49:15;11.50;79.40
13198;DHT22;6664;52.514;13.440;2022-12-26T10:52:02;11.60;79.40
13198;DHT22;6664;52.514;13.440;2022-12-26T10:54:53;11.50;79.00
13198;DHT22;6664;52.514;13.440;2022-12-26T10:58:09;11.50;78.80
13198;DHT22;6664;52.514;13.440;2022-12-26T11:00:56;11.40;78.90
13198;DHT22;6664;52.514;13.440;2022-12-26T11:04:13;11.40;78.30
13198;DHT22;6664;52.514;13.440;2022-12-26T11:07:08;11.40;78.70
13198;DHT22;6664;52.514;13.440;2022-12-26T11:09:55;11.30;78.60
13198;DHT22;6664;52.514;13.440;2022-12-26T11:12:51;11.30;78.60
13198;DHT22;6664;52.514;13.440;2022-12-26T11:15:40;11.30;78.50
13198;DHT22;6664;52.514;13.440;2022-12-26T11:18:46;11.30;78.40
13198;DHT22;6664;52.514;13.440;2022-12-26T11:21:35;11.20;78.10
13198;DHT22;6664;52.514;13.440;2022-12-26T11:24:20;11.20;78.20
13198;DHT22;6664;52.514;13.440;2022-12-26T11:27:18;11.20;77.90
13198;DHT22;6664;52.514;13.440;2022-12-26T11:36:06;11.10;78.40
13198;DHT22;6664;52.514;13.440;2022-12-26T11:39:03;11.00;78.40
13198;DHT22;6664;52.514;13.440;2022-12-26T11:41:50;10.90;78.40
13198;DHT22;6664;52.514;13.440;2022-12-26T11:44:40;11.00;78.50
13198;DHT22;6664;52.514;13.440;2022-12-26T11:47:27;11.00;78.40
13198;DHT22;6664;52.514;13.440;2022-12-26T11:50:15;11.00;77.80
13198;DHT22;6664;52.514;13.440;2022-12-26T11:53:08;11.10;77.70
13198;DHT22;6664;52.514;13.440;2022-12-26T11:56:06;11.20;77.50
13198;DHT22;6664;52.514;13.440;2022-12-26T11:59:10;11.30;77.40
13198;DHT22;6664;52.514;13.440;2022-12-26T12:02:24;11.30;77.00
13198;DHT22;6664;52.514;13.440;2022-12-26T12:11:34;11.30;77.00
13198;DHT22;6664;52.514;13.440;2022-12-26T12:17:24;11.20;77.30
13198;DHT22;6664;52.514;13.440;2022-12-26T12:20:36;11.10;77.90
13198;DHT22;6664;52.514;13.440;2022-12-26T12:23:47;11.00;78.30
13198;DHT22;6664;52.514;13.440;2022-12-26T12:39:10;10.80;79.20
13198;DHT22;6664;52.514;13.440;2022-12-26T12:45:25;10.80;79.50
13198;DHT22;6664;52.514;13.440;2022-12-26T12:48:52;10.90;79.60
13198;DHT22;6664;52.514;13.440;2022-12-26T13:01:11;11.10;78.60
13198;DHT22;6664;52.514;13.440;2022-12-26T13:07:08;11.10;78.60
13198;DHT22;6664;52.514;13.440;2022-12-26T13:10:05;11.20;78.50
13198;DHT22;6664;52.514;13.440;2022-12-26T13:13:14;11.10;78.30
13198;DHT22;6664;52.514;13.440;2022-12-26T13:16:26;11.10;78.40
13198;DHT22;6664;52.514;13.440;2022-12-26T13:19:26;11.10;78.30
13198;DHT22;6664;52.514;13.440;2022-12-26T13:22:25;11.10;78.40
13198;DHT22;6664;52.514;13.440;2022-12-26T13:25:12;11.10;78.60
13198;DHT22;6664;52.514;13.440;2022-12-26T13:27:59;10.90;79.00
13198;DHT22;6664;52.514;13.440;2022-12-26T13:30:54;10.80;79.60
13198;DHT22;6664;52.514;13.440;2022-12-26T13:33:42;10.70;80.00
13198;DHT22;6664;52.514;13.440;2022-12-26T13:36:44;10.80;80.40
13198;DHT22;6664;52.514;13.440;2022-12-26T13:39:34;10.90;79.90
13198;DHT22;6664;52.514;13.440;2022-12-26T13:42:32;10.90;79.90
13198;DHT22;6664;52.514;13.440;2022-12-26T13:45:41;11.20;79.60
13198;DHT22;6664;52.514;13.440;2022-12-26T13:51:40;11.60;76.50
13198;DHT22;6664;52.514;13.440;2022-12-26T13:54:27;11.00;78.40
13198;DHT22;6664;52.514;13.440;2022-12-26T13:57:38;10.60;79.50
13198;DHT22;6664;52.514;13.440;2022-12-26T14:00:45;10.30;80.70
13198;DHT22;6664;52.514;13.440;2022-12-26T14:03:45;10.20;81.50
13198;DHT22;6664;52.514;13.440;2022-12-26T14:10:09;10.10;82.70
13198;DHT22;6664;52.514;13.440;2022-12-26T14:19:41;10.50;81.30
13198;DHT22;6664;52.514;13.440;2022-12-26T14:22:58;10.50;80.90
13198;DHT22;6664;52.514;13.440;2022-12-26T14:26:02;10.40;81.30
13198;DHT22;6664;52.514;13.440;2022-12-26T14:29:02;10.20;81.30
13198;DHT22;6664;52.514;13.440;2022-12-26T14:31:53;10.10;81.40
13198;DHT22;6664;52.514;13.440;2022-12-26T14:34:53;10.00;82.30
13198;DHT22;6664;52.514;13.440;2022-12-26T14:40:35;9.80;83.50
13198;DHT22;6664;52.514;13.440;2022-12-26T14:43:38;9.60;83.90
13198;DHT22;6664;52.514;13.440;2022-12-26T14:49:39;9.50;84.80
13198;DHT22;6664;52.514;13.440;2022-12-26T14:58:35;9.90;83.30
13198;DHT22;6664;52.514;13.440;2022-12-26T15:04:22;10.20;80.30
13198;DHT22;6664;52.514;13.440;2022-12-26T15:10:58;10.30;79.30
13198;DHT22;6664;52.514;13.440;2022-12-26T15:16:56;10.40;78.00
13198;DHT22;6664;52.514;13.440;2022-12-26T15:29:28;10.40;77.90
13198;DHT22;6664;52.514;13.440;2022-12-26T15:44:50;9.60;83.30
13198;DHT22;6664;52.514;13.440;2022-12-26T15:53:59;9.30;86.50
13198;DHT22;6664;52.514;13.440;2022-12-26T16:03:35;9.10;88.20
13198;DHT22;6664;52.514;13.440;2022-12-26T16:09:55;9.10;89.50
13198;DHT22;6664;52.514;13.440;2022-12-26T16:12:54;8.90;90.00
13198;DHT22;6664;52.514;13.440;2022-12-26T16:15:51;9.00;90.40
13198;DHT22;6664;52.514;13.440;2022-12-26T16:18:39;9.00;90.60
13198;DHT22;6664;52.514;13.440;2022-12-26T16:21:28;9.10;90.40
13198;DHT22;6664;52.514;13.440;2022-12-26T16:24:34;9.20;90.20
13198;DHT22;6664;52.514;13.440;2022-12-26T16:27:22;9.20;90.00
13198;DHT22;6664;52.514;13.440;2022-12-26T16:30:17;9.30;90.00
13198;DHT22;6664;52.514;13.440;2022-12-26T16:33:05;9.40;89.60
13198;DHT22;6664;52.514;13.440;2022-12-26T16:35:52;9.40;89.20
13198;DHT22;6664;52.514;13.440;2022-12-26T16:38:45;9.50;88.60
13198;DHT22;6664;52.514;13.440;2022-12-26T16:41:34;9.50;88.20
13198;DHT22;6664;52.514;13.440;2022-12-26T16:47:15;9.70;87.20
13198;DHT22;6664;52.514;13.440;2022-12-26T16:50:03;9.70;86.80
13198;DHT22;6664;52.514;13.440;2022-12-26T16:53:00;9.70;86.10
13198;DHT22;6664;52.514;13.440;2022-12-26T16:55:50;9.80;85.60
13198;DHT22;6664;52.514;13.440;2022-12-26T16:58:38;9.80;85.30
13198;DHT22;6664;52.514;13.440;2022-12-26T17:01:24;9.80;85.30
13198;DHT22;6664;52.514;13.440;2022-12-26T17:04:24;9.80;85.40
13198;DHT22;6664;52.514;13.440;2022-12-26T17:07:15;9.90;84.40
13198;DHT22;6664;52.514;13.440;2022-12-26T17:10:02;10.10;81.80
13198;DHT22;6664;52.514;13.440;2022-12-26T17:12:56;10.10;81.20
13198;DHT22;6664;52.514;13.440;2022-12-26T17:15:50;10.10;80.50
13198;DHT22;6664;52.514;13.440;2022-12-26T17:18:52;10.10;80.40
13198;DHT22;6664;52.514;13.440;2022-12-26T17:22:20;10.20;79.70
13198;DHT22;6664;52.514;13.440;2022-12-26T17:25:30;10.10;79.10
13198;DHT22;6664;52.514;13.440;2022-12-26T17:34:21;10.20;77.40
13198;DHT22;6664;52.514;13.440;2022-12-26T17:37:24;10.20;76.40
13198;DHT22;6664;52.514;13.440;2022-12-26T17:43:24;9.90;77.10
13198;DHT22;6664;52.514;13.440;2022-12-26T17:46:13;9.70;77.30
13198;DHT22;6664;52.514;13.440;2022-12-26T17:49:00;9.60;77.60
13198;DHT22;6664;52.514;13.440;2022-12-26T17:51:50;9.50;78.20
13198;DHT22;6664;52.514;13.440;2022-12-26T17:54:49;9.30;78.10
13198;DHT22;6664;52.514;13.440;2022-12-26T17:57:35;9.30;77.90
13198;DHT22;6664;52.514;13.440;2022-12-26T18:00:23;9.30;78.10
13198;DHT22;6664;52.514;13.440;2022-12-26T18:03:10;9.30;78.10
13198;DHT22;6664;52.514;13.440;2022-12-26T18:05:55;9.30;77.70
13198;DHT22;6664;52.514;13.440;2022-12-26T18:08:44;9.30;77.00
13198;DHT22;6664;52.514;13.440;2022-12-26T18:11:30;9.20;76.80
13198;DHT22;6664;52.514;13.440;2022-12-26T18:14:15;9.20;76.60
13198;DHT22;6664;52.514;13.440;2022-12-26T18:17:02;9.20;76.40
13198;DHT22;6664;52.514;13.440;2022-12-26T18:19:47;9.20;75.80
13198;DHT22;6664;52.514;13.440;2022-12-26T18:22:36;9.30;75.30
13198;DHT22;6664;52.514;13.440;2022-12-26T18:25:23;9.20;75.60
13198;DHT22;6664;52.514;13.440;2022-12-26T18:28:12;9.20;75.50
13198;DHT22;6664;52.514;13.440;2022-12-26T18:30:57;9.20;75.70
13198;DHT22;6664;52.514;13.440;2022-12-26T18:33:45;9.00;76.00
13198;DHT22;6664;52.514;13.440;2022-12-26T18:36:34;8.90;76.10
13198;DHT22;6664;52.514;13.440;2022-12-26T18:39:20;8.90;75.60
13198;DHT22;6664;52.514;13.440;2022-12-26T18:42:09;8.90;76.00
13198;DHT22;6664;52.514;13.440;2022-12-26T18:44:55;8.90;75.00
13198;DHT22;6664;52.514;13.440;2022-12-26T18:47:41;9.00;74.70
13198;DHT22;6664;52.514;13.440;2022-12-26T18:50:28;9.10;74.20
13198;DHT22;6664;52.514;13.440;2022-12-26T18:53:16;9.00;74.60
13198;DHT22;6664;52.514;13.440;2022-12-26T18:56:01;8.80;74.30
13198;DHT22;6664;52.514;13.440;2022-12-26T18:58:48;8.80;74.60
13198;DHT22;6664;52.514;13.440;2022-12-26T19:01:42;8.80;72.30
13198;DHT22;6664;52.514;13.440;2022-12-26T19:04:28;8.70;72.20
13198;DHT22;6664;52.514;13.440;2022-12-26T19:07:14;8.70;70.00
13198;DHT22;6664;52.514;13.440;2022-12-26T19:10:01;8.60;69.30
13198;DHT22;6664;52.514;13.440;2022-12-26T19:12:47;8.60;69.40
13198;DHT22;6664;52.514;13.440;2022-12-26T19:15:34;8.50;69.30
13198;DHT22;6664;52.514;13.440;2022-12-26T19:18:22;8.50;69.20
13198;DHT22;6664;52.514;13.440;2022-12-26T19:21:14;8.50;68.10
13198;DHT22;6664;52.514;13.440;2022-12-26T19:24:00;8.40;68.30
13198;DHT22;6664;52.514;13.440;2022-12-26T19:26:47;8.40;68.00
13198;DHT22;6664;52.514;13.440;2022-12-26T19:29:32;8.40;67.70
13198;DHT22;6664;52.514;13.440;2022-12-26T19:32:18;8.30;67.30
13198;DHT22;6664;52.514;13.440;2022-12-26T19:35:05;8.10;67.20
13198;DHT22;6664;52.514;13.440;2022-12-26T19:37:51;8.10;67.50
13198;DHT22;6664;52.514;13.440;2022-12-26T19:40:39;8.00;67.80
13198;DHT22;6664;52.514;13.440;2022-12-26T19:43:25;7.90;67.90
13198;DHT22;6664;52.514;13.440;2022-12-26T19:46:12;7.90;68.10
13198;DHT22;6664;52.514;13.440;2022-12-26T19:49:02;7.80;68.60
13198;DHT22;6664;52.514;13.440;2022-12-26T19:51:47;7.80;68.80
13198;DHT22;6664;52.514;13.440;2022-12-26T19:54:33;7.80;68.90
13198;DHT22;6664;52.514;13.440;2022-12-26T19:57:21;7.70;68.80
13198;DHT22;6664;52.514;13.440;2022-12-26T20:00:08;7.70;68.80
13198;DHT22;6664;52.514;13.440;2022-12-26T20:02:55;7.60;68.90
13198;DHT22;6664;52.514;13.440;2022-12-26T20:05:42;7.60;69.40
13198;DHT22;6664;52.514;13.440;2022-12-26T20:08:27;7.50;69.60
13198;DHT22;6664;52.514;13.440;2022-12-26T20:11:22;7.50;70.00
13198;DHT22;6664;52.514;13.440;2022-12-26T20:14:14;7.40;70.30
13198;DHT22;6664;52.514;13.440;2022-12-26T20:17:00;7.40;70.20
13198;DHT22;6664;52.514;13.440;2022-12-26T20:19:51;7.40;70.20
13198;DHT22;6664;52.514;13.440;2022-12-26T20:22:37;7.40;70.50
13198;DHT22;6664;52.514;13.440;2022-12-26T20:25:25;7.40;70.70
13198;DHT22;6664;52.514;13.440;2022-12-26T20:28:12;7.40;70.30
13198;DHT22;6664;52.514;13.440;2022-12-26T20:31:03;7.40;70.30
13198;DHT22;6664;52.514;13.440;2022-12-26T20:33:55;7.40;70.00
13198;DHT22;6664;52.514;13.440;2022-12-26T20:36:45;7.30;69.50
13198;DHT22;6664;52.514;13.440;2022-12-26T20:39:34;7.30;69.90
13198;DHT22;6664;52.514;13.440;2022-12-26T20:42:19;7.20;68.10
13198;DHT22;6664;52.514;13.440;2022-12-26T20:45:10;7.20;68.40
13198;DHT22;6664;52.514;13.440;2022-12-26T20:47:55;7.20;68.10
13198;DHT22;6664;52.514;13.440;2022-12-26T20:50:43;7.10;68.30
13198;DHT22;6664;52.514;13.440;2022-12-26T20:53:33;7.10;67.90
13198;DHT22;6664;52.514;13.440;2022-12-26T20:56:19;7.00;68.10
13198;DHT22;6664;52.514;13.440;2022-12-26T20:59:08;7.00;67.90
13198;DHT22;6664;52.514;13.440;2022-12-26T21:01:53;7.00;67.20
13198;DHT22;6664;52.514;13.440;2022-12-26T21:04:39;6.90;66.70
13198;DHT22;6664;52.514;13.440;2022-12-26T21:07:24;6.80;66.90
13198;DHT22;6664;52.514;13.440;2022-12-26T21:10:10;6.70;66.80
13198;DHT22;6664;52.514;13.440;2022-12-26T21:12:55;6.60;66.50
13198;DHT22;6664;52.514;13.440;2022-12-26T21:15:44;6.40;67.00
13198;DHT22;6664;52.514;13.440;2022-12-26T21:18:29;6.40;67.90
13198;DHT22;6664;52.514;13.440;2022-12-26T21:21:18;6.30;68.60
13198;DHT22;6664;52.514;13.440;2022-12-26T21:24:06;6.20;69.00